Cassopolis, MI (49031)

10:15 PM EDT on August 31, 2015 (GMT -0400)
Cass County | | Change Station
CLOSE
Current Station
Personal Weather Station
Location: Cassopolis, MI
Elevation: 879 ft
Nearby Weather Stations

Elev 879 ft 41.88 °N, 86.04 °W | Updated 11 seconds ago

Clear
Clear
69.4 °F
Feels Like 69.4 °F
N
0.0
Wind Variable Wind from North
Gusts 0.0 mph

Today
High -- | Low -- °F
--% Chance of Precip.
Yesterday
High -- | Low -- °F
Precip. -- in
7:08 AM 8:19 PM
Waning Gibbous, 92% visible
Pressure 30.05 in
Visibility 7.0 miles
Clouds Clear
Dew Point 62 °F
Humidity 76%
Rainfall 0.00 in
Snow Depth Not available.
UV 0 out of 12
Pollen 10.40 out of 12
Air Quality Not available.
Flu Activity Not available.
METAR KEKM 010050Z 00000KT 7SM CLR 23/21 A3005
Pressure 30.05 in
Visibility 7.0 miles
Clouds Clear
Dew Point 62 °F
Humidity 76%
Rainfall 0.00 in
Snow Depth Not available.
UV 0 out of 12
Pollen 10.40 out of 12
Air Quality Not available.
Flu Activity Not available.
METAR KEKM 010050Z 00000KT 7SM CLR 23/21 A3005

10-Day Weather Forecast

×

Almanac

Astronomy

Aug. 31, 2015 Rise Set
Actual Time
Civil Twilight
Nautical Twilight
Astronomical Twilight
Moon
Length of Visible Light
Length of Day
Tomorrow will be .
, % of the Moon is Illuminated

Today's Extremes

State Highs State Lows

Community

WunderPhotos

Upload Photos

1,851,443 photos uploaded!

WunderBlogs® & News

Nearby

Air Quality

  Air Quality AQ Index Pollutant
Not available.

Snow Depth

Station Depth Elevation

Earthquake Activity

City Distance Mag. Time & Date
Minimum magnitude displayed is 2.5.

Coastal Water Temperatures

Place Temperature

Stations

Nearby Weather Stations

Station Location Temp. Windchill Dew Point Humidity Wind Precip. Elev Updated Type